This is the latest recevied weather packets stored in our database for station/object DF9PM-13. If no packets are shown the sender has not sent any weather packets the latest 10 day(s).
| Time | Temp. | Humidity | Pressure | Rain* | Wind** | Luminosity | Snow |
|---|---|---|---|---|---|---|---|
| 1777857329 | 12.78° C | 94% | 1013.8 hPa | - | - | - | - |
| 1777857029 | 12.78° C | 93% | 1013.8 hPa | - | - | - | - |
| 1777856729 | 12.78° C | 93% | 1013.8 hPa | - | - | - | - |
| 1777856428 | 12.78° C | 93% | 1013.8 hPa | - | - | - | - |
| 1777856129 | 13.33° C | 90% | 1013.8 hPa | - | - | - | - |
| 1777855828 | 13.33° C | 88% | 1013.7 hPa | - | - | - | - |
| 1777855528 | 13.33° C | 90% | 1013.7 hPa | - | - | - | - |
| 1777855228 | 12.78° C | 95% | 1013.7 hPa | - | - | - | - |
| 1777854929 | 13.89° C | 90% | 1013.7 hPa | - | - | - | - |
| 1777854628 | 13.89° C | 90% | 1013.8 hPa | - | - | - | - |
| 1777854328 | 13.89° C | 91% | 1013.9 hPa | - | - | - | - |
| 1777854028 | 13.33° C | 91% | 1014 hPa | - | - | - | - |
| 1777853728 | 12.78° C | 99% | 1014 hPa | - | - | - | - |
| 1777853428 | 12.78° C | 89% | 1014 hPa | - | - | - | - |
| 1777853128 | 13.89° C | 85% | 1013.8 hPa | - | - | - | - |
| 1777852828 | 13.89° C | 84% | 1013.8 hPa | - | - | - | - |
| 1777852528 | 13.89° C | 86% | 1013.9 hPa | - | - | - | - |
| 1777852228 | 14.44° C | 91% | 1013.8 hPa | - | - | - | - |
| 1777851928 | 14.44° C | 88% | 1013.8 hPa | - | - | - | - |
| 1777851627 | 14.44° C | 85% | 1013.7 hPa | - | - | - | - |
| 1777851327 | 14.44° C | 87% | 1013.8 hPa | - | - | - | - |
| 1777851027 | 14.44° C | 87% | 1013.8 hPa | - | - | - | - |
| 1777850727 | 13.33° C | 90% | 1013.8 hPa | - | - | - | - |
| 1777850427 | 14.44° C | 86% | 1013.9 hPa | - | - | - | - |
| 1777850127 | 14.44° C | 88% | 1013.9 hPa | - | - | - | - |
* Rain since midnight (hover to see other rain measurements)
** Current wind speed in m/s (hover to see current wind gust speed)